Time;durP1;ratioP1;P1;durP2;ratioP2;P2;SDS_P1;SDS_P2;PMS_P1;PMS_P2;Temp;Humidity;BMP_temperature;BMP_pressure;BME280_temperature;BME280_humidity;BME280_pressure;Samples;Min_cycle;Max_cycle;Signal;HPM_P1;HPM_P2
2023/06/13 00:00:49;;;;;;;;;;;18.00;40.80;;;;;;5034835;28;20284;-71
2023/06/13 00:03:15;;;;;;;;;;;18.00;41.30;;;;;;5053145;28;19921;-71
2023/06/13 00:05:46;;;;;;;;;;;17.90;42.70;;;;;;5052905;28;20262;-71
2023/06/13 00:08:21;;;;;;;;;;;17.90;42.30;;;;;;5053034;28;19916;-71
2023/06/13 00:10:47;;;;;;;;;;;17.90;41.90;;;;;;5052751;28;20482;-71
2023/06/13 00:13:13;;;;;;;;;;;17.90;41.80;;;;;;5052899;28;19916;-71
2023/06/13 00:15:41;;;;;;;;;;;17.80;41.60;;;;;;5034613;28;20338;-71
2023/06/13 00:18:06;;;;;;;;;;;17.80;41.60;;;;;;5052580;28;19962;-71
2023/06/13 00:20:32;;;;;;;;;;;17.80;41.60;;;;;;5052811;28;20385;-72
2023/06/13 00:22:58;;;;;;;;;;;17.70;41.40;;;;;;5052846;28;20458;-71
2023/06/13 00:25:23;;;;;;;;;;;17.70;41.50;;;;;;5052566;28;19953;-71
2023/06/13 00:27:49;;;;;;;;;;;17.60;41.60;;;;;;5051499;28;19962;-71
2023/06/13 00:30:14;;;;;;;;;;;17.50;41.60;;;;;;5052230;28;19988;-71
2023/06/13 00:32:40;;;;;;;;;;;17.50;41.70;;;;;;5071006;28;20332;-71
2023/06/13 00:35:08;;;;;;;;;;;17.50;42.00;;;;;;5072187;28;19947;-71
2023/06/13 00:37:34;;;;;;;;;;;17.40;42.40;;;;;;5072171;28;19916;-71
2023/06/13 00:39:59;;;;;;;;;;;17.40;42.40;;;;;;5045826;28;19916;-75
2023/06/13 00:42:25;;;;;;;;;;;17.30;42.60;;;;;;5051845;28;19958;-75
2023/06/13 00:44:50;;;;;;;;;;;17.30;42.60;;;;;;5051745;28;19920;-74
2023/06/13 00:47:17;;;;;;;;;;;17.20;42.90;;;;;;5034010;28;19909;-75
2023/06/13 00:49:43;;;;;;;;;;;17.20;43.10;;;;;;5052280;28;20299;-75
2023/06/13 00:52:08;;;;;;;;;;;17.00;43.10;;;;;;5051589;28;19924;-74
2023/06/13 00:54:37;;;;;;;;;;;17.00;43.20;;;;;;5052047;28;19995;-74
2023/06/13 00:57:05;;;;;;;;;;;17.00;43.30;;;;;;5051790;28;19924;-74
2023/06/13 00:59:30;;;;;;;;;;;16.90;43.30;;;;;;5052270;28;19917;-75
2023/06/13 01:01:56;;;;;;;;;;;16.80;43.50;;;;;;5051855;28;19963;-75
2023/06/13 01:04:21;;;;;;;;;;;16.80;43.70;;;;;;5051795;28;19928;-75
2023/06/13 01:06:47;;;;;;;;;;;16.80;43.70;;;;;;5051419;28;19913;-75
2023/06/13 01:09:13;;;;;;;;;;;16.70;44.40;;;;;;5052073;28;19913;-75
2023/06/13 01:11:54;;;;;;;;;;;16.70;45.10;;;;;;5051539;28;20054;-75
2023/06/13 01:14:27;;;;;;;;;;;16.70;47.00;;;;;;5052058;28;20340;-75
2023/06/13 01:16:56;;;;;;;;;;;16.60;49.30;;;;;;5051395;28;20441;-75
2023/06/13 01:19:37;;;;;;;;;;;16.60;49.10;;;;;;5033804;28;19920;-75
2023/06/13 01:22:06;;;;;;;;;;;16.60;48.50;;;;;;5051687;28;20352;-75
2023/06/13 01:24:41;;;;;;;;;;;16.50;49.00;;;;;;5051901;28;20011;-75
2023/06/13 01:27:08;;;;;;;;;;;16.50;48.40;;;;;;5051440;28;19952;-75
2023/06/13 01:29:34;;;;;;;;;;;16.50;48.40;;;;;;5051951;28;20011;-74
2023/06/13 01:32:01;;;;;;;;;;;16.60;48.40;;;;;;5064598;28;20405;-75
2023/06/13 01:34:27;;;;;;;;;;;16.60;48.10;;;;;;5071915;28;19971;-75
2023/06/13 01:36:52;;;;;;;;;;;16.60;47.60;;;;;;5071244;28;19955;-75
2023/06/13 01:39:18;;;;;;;;;;;16.60;48.40;;;;;;5071689;28;19965;-75
2023/06/13 01:41:43;;;;;;;;;;;16.60;48.90;;;;;;5071146;28;19938;-77
2023/06/13 01:44:15;;;;;;;;;;;16.60;50.10;;;;;;5056069;28;20280;-75
2023/06/13 01:46:50;;;;;;;;;;;16.50;49.60;;;;;;5055271;28;19909;-75
2023/06/13 01:49:33;;;;;;;;;;;16.50;49.20;;;;;;5055659;28;19924;-75
2023/06/13 01:52:00;;;;;;;;;;;16.40;48.80;;;;;;5055202;28;19913;-76
2023/06/13 01:54:26;;;;;;;;;;;16.30;48.60;;;;;;5055147;28;20249;-75
2023/06/13 01:56:55;;;;;;;;;;;16.30;48.50;;;;;;5054652;28;20372;-75
2023/06/13 01:59:23;;;;;;;;;;;16.30;48.70;;;;;;5055290;28;19923;-76
2023/06/13 02:01:50;;;;;;;;;;;16.30;48.50;;;;;;5054670;28;19912;-76
2023/06/13 02:04:15;;;;;;;;;;;16.30;48.40;;;;;;5055202;28;19971;-75
2023/06/13 02:06:40;;;;;;;;;;;16.30;48.30;;;;;;5054876;28;19948;-76
2023/06/13 02:09:06;;;;;;;;;;;16.20;48.40;;;;;;5055000;28;19917;-74
2023/06/13 02:11:32;;;;;;;;;;;16.20;48.40;;;;;;5054609;28;19951;-76
2023/06/13 02:13:57;;;;;;;;;;;16.20;48.40;;;;;;5043037;28;19964;-74
2023/06/13 02:16:25;;;;;;;;;;;16.10;48.50;;;;;;5034722;28;19910;-75
2023/06/13 02:18:53;;;;;;;;;;;16.10;48.50;;;;;;5034653;28;19916;-75
2023/06/13 02:21:19;;;;;;;;;;;16.10;48.80;;;;;;5016893;28;20372;-75
2023/06/13 02:23:44;;;;;;;;;;;16.00;48.60;;;;;;5034729;28;19924;-75
2023/06/13 02:26:10;;;;;;;;;;;15.90;48.30;;;;;;5034453;28;19958;-75
2023/06/13 02:28:35;;;;;;;;;;;15.90;48.30;;;;;;5034683;28;20016;-75
2023/06/13 02:31:01;;;;;;;;;;;15.80;48.30;;;;;;5044167;28;19908;-75
2023/06/13 02:33:30;;;;;;;;;;;15.80;48.50;;;;;;5074385;28;19916;-75
2023/06/13 02:35:55;;;;;;;;;;;15.70;49.20;;;;;;5074070;28;19935;-75
2023/06/13 02:38:21;;;;;;;;;;;15.70;49.80;;;;;;5074140;28;19916;-73
2023/06/13 02:40:46;;;;;;;;;;;15.70;49.40;;;;;;5074182;28;19913;-75
2023/06/13 02:43:11;;;;;;;;;;;15.70;49.20;;;;;;5074070;28;19924;-75
2023/06/13 02:45:37;;;;;;;;;;;15.60;49.20;;;;;;5073885;28;20007;-76
2023/06/13 02:48:02;;;;;;;;;;;15.60;49.40;;;;;;5072690;28;19960;-78
2023/06/13 02:50:28;;;;;;;;;;;15.50;49.50;;;;;;5062290;28;19912;-75
2023/06/13 02:52:53;;;;;;;;;;;15.50;49.30;;;;;;5053968;28;19921;-75
2023/06/13 02:55:20;;;;;;;;;;;15.40;49.20;;;;;;5053332;28;19999;-76
2023/06/13 02:57:45;;;;;;;;;;;15.40;49.20;;;;;;5053677;28;19966;-75
2023/06/13 03:00:12;;;;;;;;;;;15.40;49.10;;;;;;5053739;28;19913;-76
2023/06/13 03:02:38;;;;;;;;;;;15.30;49.20;;;;;;5053735;28;20356;-76
2023/06/13 03:05:04;;;;;;;;;;;15.30;49.10;;;;;;5053642;28;19916;-75
2023/06/13 03:07:31;;;;;;;;;;;15.30;49.20;;;;;;5053681;28;19909;-75
2023/06/13 03:09:58;;;;;;;;;;;15.30;49.30;;;;;;5053518;28;19975;-75
2023/06/13 03:12:24;;;;;;;;;;;15.20;49.30;;;;;;5053693;28;19909;-76
2023/06/13 03:14:49;;;;;;;;;;;15.20;49.60;;;;;;5053365;28;19913;-75
2023/06/13 03:17:16;;;;;;;;;;;15.20;49.90;;;;;;5053487;28;19919;-76
2023/06/13 03:19:42;;;;;;;;;;;15.20;49.90;;;;;;5053705;28;19920;-75
2023/06/13 03:22:13;;;;;;;;;;;15.20;50.20;;;;;;5053269;28;19912;-75
2023/06/13 03:24:42;;;;;;;;;;;15.30;50.10;;;;;;5053170;28;20015;-76
2023/06/13 03:27:08;;;;;;;;;;;15.30;50.70;;;;;;5053389;28;19920;-75
2023/06/13 03:29:33;;;;;;;;;;;15.40;51.10;;;;;;5053594;28;19916;-76
2023/06/13 03:31:59;;;;;;;;;;;15.50;50.80;;;;;;5066181;28;19909;-75
2023/06/13 03:34:26;;;;;;;;;;;15.60;50.70;;;;;;5073607;28;19960;-76
2023/06/13 03:36:51;;;;;;;;;;;15.80;50.90;;;;;;5072943;28;20387;-76
2023/06/13 03:39:17;;;;;;;;;;;15.90;51.70;;;;;;5073573;28;19916;-76
2023/06/13 03:41:42;;;;;;;;;;;16.10;51.30;;;;;;5072963;28;20011;-76
2023/06/13 03:44:08;;;;;;;;;;;16.30;51.20;;;;;;5073144;28;20035;-76
2023/06/13 03:46:33;;;;;;;;;;;16.50;51.10;;;;;;5072922;28;20287;-76
2023/06/13 03:48:59;;;;;;;;;;;16.80;51.30;;;;;;5073095;28;20332;-76
2023/06/13 03:51:24;;;;;;;;;;;17.00;51.10;;;;;;5053390;28;19948;-76
2023/06/13 03:53:50;;;;;;;;;;;17.30;51.30;;;;;;5053015;28;20257;-76
2023/06/13 03:56:16;;;;;;;;;;;17.60;51.00;;;;;;5052684;28;19956;-76
2023/06/13 03:58:42;;;;;;;;;;;17.90;50.80;;;;;;5053003;28;19917;-76
2023/06/13 04:01:08;;;;;;;;;;;18.20;50.70;;;;;;5052642;28;19913;-76
2023/06/13 04:03:35;;;;;;;;;;;18.60;50.50;;;;;;5053043;28;20398;-75
2023/06/13 04:06:01;;;;;;;;;;;18.90;50.30;;;;;;5052121;28;19916;-76
2023/06/13 04:08:26;;;;;;;;;;;19.30;50.10;;;;;;5052799;28;20072;-76
2023/06/13 04:10:51;;;;;;;;;;;19.70;49.70;;;;;;5034420;28;19909;-71
2023/06/13 04:13:17;;;;;;;;;;;20.00;49.30;;;;;;5052753;28;19927;-70
2023/06/13 04:15:42;;;;;;;;;;;20.40;48.70;;;;;;5052747;28;20285;-71
2023/06/13 04:18:09;;;;;;;;;;;20.70;48.20;;;;;;5052865;28;19927;-71
2023/06/13 04:20:35;;;;;;;;;;;21.10;47.80;;;;;;5052590;28;20422;-71
2023/06/13 04:23:01;;;;;;;;;;;21.50;47.20;;;;;;5034430;28;20019;-70
2023/06/13 04:25:27;;;;;;;;;;;21.80;46.20;;;;;;5052330;28;19909;-72
2023/06/13 04:27:53;;;;;;;;;;;22.10;46.00;;;;;;5052482;28;20346;-71
2023/06/13 04:30:18;;;;;;;;;;;22.40;45.70;;;;;;5051641;28;20004;-71
2023/06/13 04:32:45;;;;;;;;;;;22.80;45.30;;;;;;5071667;28;19917;-71
2023/06/13 04:35:16;;;;;;;;;;;23.20;43.90;;;;;;5072586;28;19908;-71
2023/06/13 04:37:43;;;;;;;;;;;23.50;43.70;;;;;;5067063;28;20016;-71
2023/06/13 04:40:09;;;;;;;;;;;23.90;43.50;;;;;;5051542;28;19967;-71
2023/06/13 04:42:35;;;;;;;;;;;24.30;42.80;;;;;;5051748;28;19943;-71
2023/06/13 04:45:01;;;;;;;;;;;24.80;42.10;;;;;;5034576;28;19916;-71
2023/06/13 04:47:27;;;;;;;;;;;25.10;41.30;;;;;;5051802;28;19913;-71
2023/06/13 04:49:58;;;;;;;;;;;25.50;40.20;;;;;;5052327;28;20376;-71
2023/06/13 04:52:27;;;;;;;;;;;25.80;39.60;;;;;;5042661;28;19952;-71
2023/06/13 04:54:54;;;;;;;;;;;26.00;38.70;;;;;;5034204;28;19987;-71
2023/06/13 04:57:20;;;;;;;;;;;26.30;38.60;;;;;;5051181;28;19909;-72
2023/06/13 04:59:46;;;;;;;;;;;26.70;38.30;;;;;;5045190;28;19932;-71
2023/06/13 05:02:12;;;;;;;;;;;27.20;37.40;;;;;;5051807;28;20261;-71
2023/06/13 05:04:37;;;;;;;;;;;27.50;36.80;;;;;;5052309;28;19916;-71
2023/06/13 05:07:05;;;;;;;;;;;27.90;36.30;;;;;;5050413;28;19974;-72
2023/06/13 05:09:30;;;;;;;;;;;28.30;35.70;;;;;;5052571;28;20027;-72
2023/06/13 05:11:56;;;;;;;;;;;28.70;35.20;;;;;;5051784;28;19940;-70
2023/06/13 05:14:21;;;;;;;;;;;29.00;34.10;;;;;;5059086;28;19931;-72
2023/06/13 05:16:47;;;;;;;;;;;29.30;33.50;;;;;;5058800;28;19909;-72
2023/06/13 05:19:12;;;;;;;;;;;29.70;33.20;;;;;;5067000;28;20376;-70
2023/06/13 05:21:38;;;;;;;;;;;30.00;33.20;;;;;;5050914;28;19921;-70
2023/06/13 05:24:03;;;;;;;;;;;30.40;32.60;;;;;;5051957;28;20448;-70
2023/06/13 05:26:29;;;;;;;;;;;30.80;32.00;;;;;;5050432;28;20288;-71
2023/06/13 05:28:56;;;;;;;;;;;31.20;31.70;;;;;;5068492;28;19920;-72
2023/06/13 05:31:21;;;;;;;;;;;31.70;30.80;;;;;;5063623;28;20356;-71
2023/06/13 05:33:47;;;;;;;;;;;32.00;29.70;;;;;;5051881;28;20004;-71
2023/06/13 05:36:12;;;;;;;;;;;32.30;29.50;;;;;;5051424;28;20270;-71
2023/06/13 05:38:37;;;;;;;;;;;32.70;29.10;;;;;;5051571;28;19917;-72
2023/06/13 05:41:03;;;;;;;;;;;33.10;28.40;;;;;;5051378;28;20360;-71
2023/06/13 05:43:29;;;;;;;;;;;33.40;27.90;;;;;;5033965;28;20011;-72
2023/06/13 05:45:54;;;;;;;;;;;33.60;26.90;;;;;;5061217;28;20376;-72
2023/06/13 05:48:19;;;;;;;;;;;33.80;26.50;;;;;;5071448;28;19921;-70
2023/06/13 05:50:45;;;;;;;;;;;34.00;26.20;;;;;;5071349;28;19916;-72
2023/06/13 05:53:10;;;;;;;;;;;34.20;26.10;;;;;;5071323;28;20376;-71
2023/06/13 05:55:36;;;;;;;;;;;34.50;25.80;;;;;;5071216;28;19908;-72
2023/06/13 05:58:01;;;;;;;;;;;34.80;24.90;;;;;;5051175;28;20284;-72
2023/06/13 06:00:27;;;;;;;;;;;35.00;24.60;;;;;;5050111;28;20310;-72
2023/06/13 06:02:52;;;;;;;;;;;35.20;24.70;;;;;;5051242;28;19931;-72
2023/06/13 06:05:19;;;;;;;;;;;35.40;24.60;;;;;;5050999;28;20292;-72
2023/06/13 06:07:44;;;;;;;;;;;35.80;24.20;;;;;;5051030;28;20327;-72
2023/06/13 06:10:10;;;;;;;;;;;36.20;23.90;;;;;;5050332;28;19917;-71
2023/06/13 06:12:36;;;;;;;;;;;36.30;23.30;;;;;;5049685;28;19909;-71
2023/06/13 06:15:01;;;;;;;;;;;36.50;23.00;;;;;;5049368;28;19962;-72
2023/06/13 06:17:27;;;;;;;;;;;36.70;22.90;;;;;;5048948;28;19909;-71
2023/06/13 06:19:52;;;;;;;;;;;36.90;22.80;;;;;;5049192;28;19913;-71
2023/06/13 06:22:18;;;;;;;;;;;37.30;22.90;;;;;;5049997;28;19944;-71
2023/06/13 06:24:43;;;;;;;;;;;37.70;22.30;;;;;;5050170;28;19917;-72
2023/06/13 06:27:11;;;;;;;;;;;38.00;21.70;;;;;;5050188;28;19909;-71
2023/06/13 06:29:36;;;;;;;;;;;38.30;21.40;;;;;;5053193;28;20357;-72
2023/06/13 06:32:02;;;;;;;;;;;38.40;21.10;;;;;;5067968;28;19915;-72
2023/06/13 06:34:27;;;;;;;;;;;38.60;20.80;;;;;;5074695;28;19916;-71
2023/06/13 06:36:53;;;;;;;;;;;38.70;20.70;;;;;;5074203;28;20261;-71
2023/06/13 06:39:19;;;;;;;;;;;38.80;20.20;;;;;;5074613;28;19927;-71
2023/06/13 06:41:45;;;;;;;;;;;38.90;20.40;;;;;;5072662;28;19954;-71
2023/06/13 06:44:10;;;;;;;;;;;39.10;20.30;;;;;;5074526;28;19925;-70
2023/06/13 06:46:36;;;;;;;;;;;39.20;19.60;;;;;;5074480;28;19958;-71
2023/06/13 06:49:02;;;;;;;;;;;39.40;19.70;;;;;;5074497;28;19924;-72
2023/06/13 06:51:28;;;;;;;;;;;39.60;19.50;;;;;;5072805;28;19908;-71
2023/06/13 06:53:55;;;;;;;;;;;39.90;19.40;;;;;;5074227;28;19916;-72
2023/06/13 06:56:21;;;;;;;;;;;40.20;19.30;;;;;;5074211;28;20423;-72
2023/06/13 06:58:46;;;;;;;;;;;40.60;19.10;;;;;;5074167;28;19995;-72
2023/06/13 07:01:14;;;;;;;;;;;40.80;18.90;;;;;;5062532;28;19965;-72
2023/06/13 07:03:40;;;;;;;;;;;41.10;18.70;;;;;;5054246;28;19928;-72
2023/06/13 07:06:05;;;;;;;;;;;41.30;18.60;;;;;;5050942;28;20364;-72
2023/06/13 07:08:32;;;;;;;;;;;41.50;18.30;;;;;;5052532;28;19923;-72
2023/06/13 07:10:57;;;;;;;;;;;41.50;17.50;;;;;;5053350;28;19912;-71
2023/06/13 07:13:23;;;;;;;;;;;41.20;17.30;;;;;;5053846;28;20423;-72
2023/06/13 07:15:48;;;;;;;;;;;41.00;17.50;;;;;;5050032;28;19913;-72
2023/06/13 07:18:14;;;;;;;;;;;41.10;17.60;;;;;;5053813;28;19924;-72
2023/06/13 07:20:40;;;;;;;;;;;41.20;17.40;;;;;;5053337;28;19913;-72
2023/06/13 07:23:05;;;;;;;;;;;41.20;17.10;;;;;;5052389;28;19917;-72
2023/06/13 07:25:32;;;;;;;;;;;41.10;17.10;;;;;;5049784;28;19917;-73
2023/06/13 07:27:58;;;;;;;;;;;41.30;17.40;;;;;;5053310;28;19923;-71
2023/06/13 07:30:23;;;;;;;;;;;41.50;17.10;;;;;;5052944;28;20007;-72
2023/06/13 07:32:50;;;;;;;;;;;41.60;17.10;;;;;;5073116;28;20003;-70
2023/06/13 07:35:16;;;;;;;;;;;41.90;17.30;;;;;;5067813;28;19958;-70
2023/06/13 07:37:42;;;;;;;;;;;42.20;16.90;;;;;;5067540;28;19960;-70
2023/06/13 07:40:08;;;;;;;;;;;42.40;16.70;;;;;;5052563;28;19944;-70
2023/06/13 07:42:34;;;;;;;;;;;42.30;16.40;;;;;;5052335;28;19912;-70
2023/06/13 07:45:00;;;;;;;;;;;42.20;16.20;;;;;;5034578;28;20295;-72
2023/06/13 07:47:25;;;;;;;;;;;41.90;16.40;;;;;;5050318;28;19909;-71
2023/06/13 07:49:50;;;;;;;;;;;42.00;16.70;;;;;;5052983;28;19916;-71
2023/06/13 07:52:16;;;;;;;;;;;42.10;16.70;;;;;;5052858;28;20478;-72
2023/06/13 07:54:41;;;;;;;;;;;42.20;16.60;;;;;;5053308;28;19959;-69
2023/06/13 07:57:07;;;;;;;;;;;42.50;16.70;;;;;;5049155;28;19998;-71
2023/06/13 07:59:32;;;;;;;;;;;42.70;16.70;;;;;;5067955;28;19924;-71
2023/06/13 08:01:58;;;;;;;;;;;43.00;16.40;;;;;;5052519;28;20419;-71
2023/06/13 08:04:24;;;;;;;;;;;43.30;16.30;;;;;;5035020;28;20019;-72
2023/06/13 08:06:50;;;;;;;;;;;43.50;16.30;;;;;;5049106;28;19909;-72
2023/06/13 08:09:17;;;;;;;;;;;43.80;16.00;;;;;;5034746;28;20399;-72
2023/06/13 08:11:43;;;;;;;;;;;44.00;15.90;;;;;;5051899;28;20364;-72
2023/06/13 08:14:12;;;;;;;;;;;44.10;15.90;;;;;;5052761;28;19921;-70
2023/06/13 08:16:38;;;;;;;;;;;44.30;15.80;;;;;;5048788;28;19919;-71
2023/06/13 08:19:04;;;;;;;;;;;44.50;15.50;;;;;;5052344;28;19920;-71
2023/06/13 08:21:29;;;;;;;;;;;44.70;15.30;;;;;;5051850;28;19919;-71
2023/06/13 08:23:55;;;;;;;;;;;44.70;14.70;;;;;;5034405;28;20003;-71
2023/06/13 08:26:22;;;;;;;;;;;44.70;14.80;;;;;;5048971;28;19920;-71
2023/06/13 08:28:48;;;;;;;;;;;44.80;14.70;;;;;;5067877;28;19920;-71
2023/06/13 08:31:13;;;;;;;;;;;44.60;14.20;;;;;;5058724;28;19912;-71
2023/06/13 08:33:39;;;;;;;;;;;44.30;14.20;;;;;;5072300;28;19935;-71
2023/06/13 08:36:05;;;;;;;;;;;43.90;13.90;;;;;;5059141;28;19920;-71
2023/06/13 08:38:31;;;;;;;;;;;43.50;14.10;;;;;;5052362;28;20311;-71
2023/06/13 08:40:56;;;;;;;;;;;43.20;14.20;;;;;;5051652;28;19923;-76
2023/06/13 08:43:22;;;;;;;;;;;43.00;14.50;;;;;;5051726;28;19921;-76
2023/06/13 08:45:48;;;;;;;;;;;42.90;14.50;;;;;;5048380;28;19960;-77
2023/06/13 08:48:13;;;;;;;;;;;43.00;14.20;;;;;;5051988;28;19917;-76
2023/06/13 08:50:39;;;;;;;;;;;42.70;13.60;;;;;;5051427;28;20447;-76
2023/06/13 08:53:06;;;;;;;;;;;42.50;13.90;;;;;;5050950;28;20020;-76
2023/06/13 08:55:36;;;;;;;;;;;42.50;13.90;;;;;;5048873;28;19913;-75
2023/06/13 08:58:03;;;;;;;;;;;42.60;13.80;;;;;;5051831;28;19963;-77
2023/06/13 09:00:31;;;;;;;;;;;42.90;14.10;;;;;;5051528;28;20274;-77
2023/06/13 09:02:56;;;;;;;;;;;43.20;14.10;;;;;;5051828;28;19917;-77
2023/06/13 09:05:23;;;;;;;;;;;43.30;13.20;;;;;;5049279;28;19939;-75
2023/06/13 09:07:50;;;;;;;;;;;43.20;12.90;;;;;;5050068;28;20395;-76
2023/06/13 09:10:15;;;;;;;;;;;43.20;12.90;;;;;;5051280;28;19909;-76
2023/06/13 09:12:42;;;;;;;;;;;43.00;12.20;;;;;;5051644;28;19973;-76
2023/06/13 09:15:07;;;;;;;;;;;42.80;12.30;;;;;;5049637;28;19948;-76
2023/06/13 09:17:33;;;;;;;;;;;42.70;12.60;;;;;;5047867;28;19933;-75
2023/06/13 09:19:59;;;;;;;;;;;42.80;12.90;;;;;;5051486;28;19932;-76
2023/06/13 09:22:26;;;;;;;;;;;42.90;12.40;;;;;;5051252;28;19958;-76
2023/06/13 09:24:52;;;;;;;;;;;42.70;12.40;;;;;;5051555;28;19912;-76
2023/06/13 09:27:18;;;;;;;;;;;42.70;12.40;;;;;;5046519;28;19931;-77
2023/06/13 09:29:44;;;;;;;;;;;42.40;12.30;;;;;;5051684;28;19917;-75
2023/06/13 09:32:11;;;;;;;;;;;42.30;12.40;;;;;;5065513;28;19997;-76
2023/06/13 09:34:38;;;;;;;;;;;42.40;12.10;;;;;;5071707;28;19917;-76
2023/06/13 09:37:05;;;;;;;;;;;42.30;12.00;;;;;;5049259;28;20011;-76
2023/06/13 09:39:31;;;;;;;;;;;42.10;12.30;;;;;;5051761;28;20019;-76
2023/06/13 09:41:57;;;;;;;;;;;42.00;12.30;;;;;;5050959;28;19909;-76
2023/06/13 09:44:24;;;;;;;;;;;41.70;12.50;;;;;;5051570;28;19921;-76
2023/06/13 09:46:50;;;;;;;;;;;41.80;13.00;;;;;;5045974;28;19913;-76
2023/06/13 09:49:17;;;;;;;;;;;42.10;13.00;;;;;;5051606;28;19917;-76
2023/06/13 09:51:43;;;;;;;;;;;42.60;12.90;;;;;;5050827;28;19913;-76
2023/06/13 09:54:08;;;;;;;;;;;42.70;12.40;;;;;;5051562;28;20339;-76
2023/06/13 09:56:34;;;;;;;;;;;42.70;12.20;;;;;;5037894;28;19915;-75
2023/06/13 09:59:00;;;;;;;;;;;42.60;12.30;;;;;;5051623;28;19967;-76
2023/06/13 10:01:28;;;;;;;;;;;42.40;12.20;;;;;;5050641;28;19916;-76
2023/06/13 10:03:53;;;;;;;;;;;42.20;12.60;;;;;;5052210;28;19924;-76
2023/06/13 10:06:19;;;;;;;;;;;42.10;12.90;;;;;;5049955;28;19913;-76
2023/06/13 10:08:44;;;;;;;;;;;42.20;12.90;;;;;;5054946;28;20367;-75
2023/06/13 10:11:14;;;;;;;;;;;42.30;12.90;;;;;;5054369;28;19909;-76
2023/06/13 10:13:42;;;;;;;;;;;42.40;12.70;;;;;;5054735;28;19975;-76
2023/06/13 10:16:10;;;;;;;;;;;42.30;12.60;;;;;;5049799;28;19958;-75
2023/06/13 10:18:36;;;;;;;;;;;42.30;12.90;;;;;;5053426;28;19927;-76
2023/06/13 10:21:02;;;;;;;;;;;42.70;12.90;;;;;;5054414;28;19920;-77
2023/06/13 10:23:30;;;;;;;;;;;42.80;12.70;;;;;;5054499;28;20128;-76
2023/06/13 10:25:56;;;;;;;;;;;43.10;12.60;;;;;;5049951;28;20286;-76
2023/06/13 10:28:22;;;;;;;;;;;43.30;12.50;;;;;;5054684;28;19923;-76
2023/06/13 10:30:50;;;;;;;;;;;43.20;12.40;;;;;;5057146;28;20494;-76
2023/06/13 10:33:25;;;;;;;;;;;43.00;12.30;;;;;;5074775;28;19917;-76
2023/06/13 10:36:00;;;;;;;;;;;42.70;12.40;;;;;;5062792;28;19962;-76
2023/06/13 10:38:48;;;;;;;;;;;42.50;12.50;;;;;;5054592;28;20383;-76
2023/06/13 10:41:26;;;;;;;;;;;42.30;12.70;;;;;;5045745;28;20288;-76
2023/06/13 10:43:55;;;;;;;;;;;41.90;12.40;;;;;;5054191;28;20368;-77
2023/06/13 10:46:20;;;;;;;;;;;41.20;12.70;;;;;;5049258;28;19909;-76
2023/06/13 10:48:50;;;;;;;;;;;40.80;12.80;;;;;;5054197;28;20356;-75
2023/06/13 10:51:29;;;;;;;;;;;40.60;13.20;;;;;;5053596;28;20291;-74
2023/06/13 10:54:06;;;;;;;;;;;40.60;13.30;;;;;;5054275;28;19917;-75
2023/06/13 10:56:32;;;;;;;;;;;40.70;12.90;;;;;;5048986;28;19916;-75
2023/06/13 10:59:02;;;;;;;;;;;40.20;13.00;;;;;;5054120;28;19923;-75
2023/06/13 11:01:29;;;;;;;;;;;39.70;13.10;;;;;;5053768;28;19917;-76
2023/06/13 11:04:03;;;;;;;;;;;39.30;13.40;;;;;;5054057;28;20352;-75
2023/06/13 11:06:29;;;;;;;;;;;39.20;13.60;;;;;;5039094;28;20281;-76
2023/06/13 11:09:07;;;;;;;;;;;39.20;13.50;;;;;;5053883;28;19917;-77
2023/06/13 11:11:38;;;;;;;;;;;39.50;13.50;;;;;;5053233;28;19909;-75
2023/06/13 11:14:06;;;;;;;;;;;39.60;13.60;;;;;;5053871;28;20444;-75
2023/06/13 11:16:35;;;;;;;;;;;39.80;13.80;;;;;;5047605;28;19958;-75
2023/06/13 11:19:05;;;;;;;;;;;40.10;13.60;;;;;;5053815;28;19956;-76
2023/06/13 11:21:30;;;;;;;;;;;40.20;13.70;;;;;;5053132;28;19913;-75
2023/06/13 11:23:56;;;;;;;;;;;40.40;13.50;;;;;;5053435;28;20257;-75
2023/06/13 11:26:21;;;;;;;;;;;40.40;13.40;;;;;;5049040;28;19959;-75
2023/06/13 11:28:49;;;;;;;;;;;40.40;13.30;;;;;;5053704;28;20275;-76
2023/06/13 11:31:15;;;;;;;;;;;40.40;13.40;;;;;;5060091;28;19918;-76
2023/06/13 11:33:47;;;;;;;;;;;40.50;13.40;;;;;;5073262;28;19917;-75
2023/06/13 11:36:14;;;;;;;;;;;40.30;14.10;;;;;;5057969;28;19913;-75
2023/06/13 11:38:42;;;;;;;;;;;40.20;14.40;;;;;;5052936;28;20026;-75
2023/06/13 11:41:07;;;;;;;;;;;40.00;14.70;;;;;;5045510;28;19913;-76
2023/06/13 11:43:33;;;;;;;;;;;39.90;14.80;;;;;;5053057;28;19921;-75
2023/06/13 11:46:03;;;;;;;;;;;39.90;14.80;;;;;;5048022;28;19944;-76
2023/06/13 11:48:28;;;;;;;;;;;39.70;14.60;;;;;;5052554;28;20384;-75
2023/06/13 11:51:09;;;;;;;;;;;39.70;14.80;;;;;;5052664;28;19920;-76
2023/06/13 11:53:48;;;;;;;;;;;39.40;14.60;;;;;;5053237;28;19943;-76
2023/06/13 11:56:17;;;;;;;;;;;38.90;14.50;;;;;;5047573;28;19909;-75
2023/06/13 11:58:44;;;;;;;;;;;38.70;14.90;;;;;;5053001;28;19917;-75
2023/06/13 12:01:13;;;;;;;;;;;38.70;15.10;;;;;;5052331;28;19932;-75
2023/06/13 12:03:40;;;;;;;;;;;38.80;15.40;;;;;;5052858;28;20664;-74
2023/06/13 12:06:06;;;;;;;;;;;39.00;15.50;;;;;;5047573;28;19971;-75
2023/06/13 12:08:35;;;;;;;;;;;38.70;15.80;;;;;;5052570;28;19916;-75
2023/06/13 12:11:11;;;;;;;;;;;38.50;16.10;;;;;;5045874;28;19909;-75
2023/06/13 12:13:36;;;;;;;;;;;38.30;15.80;;;;;;5052335;28;19920;-74
2023/06/13 12:16:03;;;;;;;;;;;38.30;16.10;;;;;;5047295;28;20308;-75
2023/06/13 12:18:28;;;;;;;;;;;38.30;16.40;;;;;;5052484;28;19917;-75
2023/06/13 12:20:56;;;;;;;;;;;38.20;16.40;;;;;;5051769;28;19920;-75
2023/06/13 12:23:22;;;;;;;;;;;38.10;16.60;;;;;;5052420;28;20386;-76
2023/06/13 12:25:48;;;;;;;;;;;37.90;16.50;;;;;;5047107;28;19959;-75
2023/06/13 12:28:15;;;;;;;;;;;37.70;16.70;;;;;;5051565;28;19994;-75
2023/06/13 12:30:42;;;;;;;;;;;37.50;17.00;;;;;;5053950;28;19915;-75
2023/06/13 12:33:09;;;;;;;;;;;37.40;16.80;;;;;;5072068;28;19938;-75
2023/06/13 12:35:35;;;;;;;;;;;37.00;16.80;;;;;;5064053;28;19912;-74
2023/06/13 12:38:01;;;;;;;;;;;36.80;16.90;;;;;;5049737;28;19917;-75
2023/06/13 12:40:33;;;;;;;;;;;36.60;17.30;;;;;;5051829;28;19913;-77
2023/06/13 12:43:00;;;;;;;;;;;36.50;17.50;;;;;;5033920;28;20007;-77
2023/06/13 12:45:27;;;;;;;;;;;36.50;17.50;;;;;;5049386;28;19923;-76
2023/06/13 12:47:54;;;;;;;;;;;36.50;17.40;;;;;;5049764;28;19916;-75
2023/06/13 12:50:21;;;;;;;;;;;36.50;17.50;;;;;;5051700;28;20342;-76
2023/06/13 12:52:47;;;;;;;;;;;36.50;17.30;;;;;;5051805;28;19960;-76
2023/06/13 12:55:13;;;;;;;;;;;36.50;17.10;;;;;;5050144;28;19970;-76
2023/06/13 12:57:39;;;;;;;;;;;36.50;17.20;;;;;;5048380;28;19909;-75
2023/06/13 13:00:10;;;;;;;;;;;36.70;17.10;;;;;;5051410;28;19912;-75
2023/06/13 13:02:35;;;;;;;;;;;36.70;16.90;;;;;;5051817;28;20308;-75
2023/06/13 13:05:01;;;;;;;;;;;36.60;16.60;;;;;;5033492;28;19924;-76
2023/06/13 13:07:31;;;;;;;;;;;36.50;16.70;;;;;;5029649;28;20365;-77
2023/06/13 13:09:57;;;;;;;;;;;36.50;16.80;;;;;;5031436;28;19917;-74
2023/06/13 13:12:23;;;;;;;;;;;36.50;16.70;;;;;;5050826;28;19909;-77
2023/06/13 13:14:49;;;;;;;;;;;36.40;16.90;;;;;;5051621;28;19915;-77
2023/06/13 13:17:14;;;;;;;;;;;36.30;17.10;;;;;;5047801;28;19909;-76
2023/06/13 13:19:40;;;;;;;;;;;36.20;17.10;;;;;;5050571;28;19917;-74
2023/06/13 13:22:06;;;;;;;;;;;36.00;17.10;;;;;;5051092;28;19909;-78
2023/06/13 13:24:31;;;;;;;;;;;35.90;17.10;;;;;;5051657;28;19917;-75
2023/06/13 13:26:57;;;;;;;;;;;35.70;16.70;;;;;;5034814;28;19920;-75
2023/06/13 13:29:25;;;;;;;;;;;35.60;16.80;;;;;;5051354;28;20319;-75
2023/06/13 13:31:51;;;;;;;;;;;35.50;16.90;;;;;;5062520;28;19917;-77
2023/06/13 13:34:17;;;;;;;;;;;35.60;16.80;;;;;;5071785;28;20249;-76
2023/06/13 13:36:42;;;;;;;;;;;35.50;16.40;;;;;;5061806;28;20280;-77
2023/06/13 13:39:08;;;;;;;;;;;35.50;16.10;;;;;;5053355;28;19916;-76
2023/06/13 13:41:34;;;;;;;;;;;35.30;16.20;;;;;;5055237;28;19918;-76
2023/06/13 13:44:00;;;;;;;;;;;35.20;16.10;;;;;;5055393;28;19925;-77
2023/06/13 13:46:26;;;;;;;;;;;35.10;16.20;;;;;;5033675;28;19909;-77
2023/06/13 13:48:51;;;;;;;;;;;35.10;16.40;;;;;;5055014;28;19920;-76
2023/06/13 13:51:17;;;;;;;;;;;35.20;16.70;;;;;;5053493;28;19954;-76
2023/06/13 13:53:42;;;;;;;;;;;35.30;16.90;;;;;;5055245;28;19917;-76
2023/06/13 13:56:08;;;;;;;;;;;35.20;17.10;;;;;;5050342;28;20004;-76
2023/06/13 13:58:34;;;;;;;;;;;35.20;16.50;;;;;;5055005;28;19998;-75
2023/06/13 14:00:59;;;;;;;;;;;35.00;16.10;;;;;;5054525;28;19984;-76
2023/06/13 14:03:25;;;;;;;;;;;34.80;16.50;;;;;;5055161;28;19921;-77
2023/06/13 14:05:50;;;;;;;;;;;34.80;16.50;;;;;;5051289;28;19913;-75
2023/06/13 14:08:16;;;;;;;;;;;34.90;16.60;;;;;;5054009;28;19917;-76
2023/06/13 14:10:42;;;;;;;;;;;34.90;16.30;;;;;;5055204;28;19955;-77
2023/06/13 14:13:08;;;;;;;;;;;34.80;16.00;;;;;;5036988;28;20386;-77